ADDS METAR Data INFO
IDs: Format: Raw Decoded Include TAF

Data at: 2244 UTC 11 Dec 2017

KRDK 112235Z AUTO 34020G28KT 10SM OVC033 06/M01 A3008 RMK AO2
KRDK 112215Z AUTO 33018G28KT 10SM SCT026 OVC034 06/00 A3007 RMK AO2
KRDK 112155Z AUTO 33018G25KT 10SM OVC026 06/01 A3005 RMK AO2
KRDK 112135Z AUTO 33021G31KT 10SM OVC028 07/01 A3003 RMK AO2
KRDK 112115Z AUTO 33015G29KT 10SM OVC029 07/01 A3002 RMK AO2
KRDK 112055Z AUTO 34016G25KT 10SM OVC031 07/01 A3001 RMK AO2
KRDK 112035Z AUTO 33021G30KT 10SM OVC034 08/00 A3000 RMK AO2
KRDK 112015Z AUTO 32027G34KT 10SM OVC034 08/00 A2999 RMK AO2
KRDK 111955Z AUTO 32021G36KT 10SM OVC037 08/00 A2998 RMK AO2
KRDK 111935Z AUTO 33020G33KT 10SM OVC038 09/00 A2997 RMK AO2
KRDK 111915Z AUTO 32020G29KT 10SM OVC037 09/00 A2996 RMK AO2
KRDK 111855Z AUTO 32021G31KT 10SM OVC037 09/00 A2996 RMK AO2
KRDK 111835Z AUTO 31021G33KT 10SM OVC037 09/00 A2996 RMK AO2
KRDK 111815Z AUTO 32019G30KT 10SM OVC038 09/M00 A2995 RMK AO2
KRDK 111755Z AUTO 32019G33KT 10SM OVC039 09/M00 A2995 RMK AO2
KRDK 111735Z AUTO 32022G33KT 10SM OVC041 09/M01 A2995 RMK AO2
KRDK 111715Z AUTO 32018G33KT 10SM OVC042 09/M01 A2995 RMK AO2
KRDK 111655Z AUTO 31020G32KT 10SM BKN043 09/M01 A2994 RMK AO2
KRDK 111635Z AUTO 32026G36KT 10SM FEW044 09/M02 A2994 RMK AO2
KRDK 111615Z AUTO 32020G32KT 10SM CLR 09/M02 A2994 RMK AO2
KRDK 111555Z AUTO 31022G30KT 10SM CLR 09/M03 A2993 RMK AO2
KRDK 111535Z AUTO 32022G31KT 10SM CLR 09/M03 A2992 RMK AO2
KRDK 111515Z AUTO 32024G34KT 10SM CLR 08/M04 A2991 RMK AO2
KRDK 111455Z AUTO 31019G28KT 10SM CLR 08/M05 A2991 RMK AO2
KRDK 111435Z AUTO 31016G28KT 10SM CLR 08/M05 A2990 RMK AO2
KRDK 111415Z AUTO 31019G29KT 10SM CLR 07/M05 A2990 RMK AO2
KRDK 111355Z AUTO 31013KT 10SM CLR 05/M06 A2990 RMK AO2
KRDK 111335Z AUTO 28009G14KT 10SM FEW002 FEW160 SCT220 03/M07 A2989 RMK AO2
KRDK 111315Z AUTO 27008KT 10SM FEW002 SCT190 BKN220 03/M06 A2989 RMK AO2
KRDK 111255Z AUTO 27006KT 10SM SCT230 BKN250 02/M07 A2989 RMK AO2
KRDK 111235Z AUTO 26006KT 10SM CLR 01/M07 A2989 RMK AO2
KRDK 111215Z AUTO 25004KT 10SM CLR M02/M07 A2990 RMK AO2
KRDK 111155Z AUTO 23003KT 10SM FEW200 M02/M07 A2989 RMK AO2
KRDK 111135Z AUTO 31003KT 10SM CLR M01/M06 A2991 RMK AO2
KRDK 111115Z AUTO 20004KT 10SM FEW140 M01/M06 A2990 RMK AO2
KRDK 111055Z AUTO 25008KT 10SM SCT130 BKN150 03/M06 A2991 RMK AO2
KRDK 111035Z AUTO 18004KT 10SM BKN140 OVC160 M01/M05 A2991 RMK AO2
KRDK 111015Z AUTO 22004KT 10SM SCT150 OVC170 M02/M05 A2992 RMK AO2
KRDK 110955Z AUTO 00000KT 10SM BKN160 BKN180 BKN220 M02/M06 A2993 RMK AO2
KRDK 110935Z AUTO 00000KT 10SM SCT140 BKN160 BKN220 M01/M05 A2994 RMK AO2
KRDK 110915Z AUTO 00000KT 10SM SCT120 OVC140 M01/M05 A2996 RMK AO2
KRDK 110855Z AUTO 19004KT BKN130 OVC150 M01/M04 A2996 RMK AO2
KRDK 110835Z AUTO 23006KT 10SM SCT120 OVC140 M01/M04 A2998 RMK AO2
KRDK 110815Z AUTO 21003KT 10SM SCT120 BKN140 OVC170 M03/M05 A2997 RMK AO2
KRDK 110755Z AUTO 00000KT 10SM FEW150 OVC170 M03/M05 A2998 RMK AO2
KRDK 110735Z AUTO 00000KT 10SM OVC170 M03/M05 A3000 RMK AO2
KRDK 110715Z AUTO 00000KT 10SM OVC170 M03/M05 A3001 RMK AO2
KRDK 110655Z AUTO 00000KT 10SM OVC160 M03/M05 A3001 RMK AO2
KRDK 110635Z AUTO 00000KT 10SM OVC160 M04/M06 A3001 RMK AO2
KRDK 110615Z AUTO 00000KT 10SM OVC160 M03/M06 A3003 RMK AO2
KRDK 110555Z AUTO 00000KT 10SM FEW140 BKN160 M03/M05 A3003 RMK AO2
KRDK 110535Z AUTO 00000KT 10SM FEW140 FEW160 M03/M06 A3005 RMK AO2
KRDK 110515Z AUTO 22005KT 10SM CLR M05/M07 A3006 RMK AO2
KRDK 110455Z AUTO 00000KT 10SM CLR M04/M06 A3006 RMK AO2
KRDK 110435Z AUTO 00000KT 10SM FEW140 M05/M07 A3007 RMK AO2
KRDK 110415Z AUTO 00000KT 10SM BKN140 M03/M06 A3007 RMK AO2
KRDK 110355Z AUTO 00000KT 10SM OVC130 M04/M06 A3008 RMK AO2
KRDK 110335Z AUTO 00000KT 10SM BKN130 M03/M06 A3009 RMK AO2
KRDK 110315Z AUTO 00000KT 10SM FEW120 SCT140 M03/M06 A3010 RMK AO2
KRDK 110255Z AUTO 00000KT 10SM FEW003 FEW140 M03/M06 A3010 RMK AO2
KRDK 110235Z AUTO 00000KT 10SM SCT003 M03/M06 A3010 RMK AO2
KRDK 110215Z AUTO 00000KT 10SM SCT003 M03/M07 A3010 RMK AO2
KRDK 110155Z AUTO 00000KT 9SM BKN003 M01/M06 A3010 RMK AO2
KRDK 110135Z AUTO 00000KT 10SM BKN003 M02/M06 A3010 RMK AO2
KRDK 110115Z AUTO 00000KT 10SM CLR M02/M06 A3011 RMK AO2
KRDK 110055Z AUTO 00000KT 10SM CLR M01/M06 A3011 RMK AO2
KRDK 110035Z AUTO 00000KT 10SM CLR M00/M06 A3012 RMK AO2
KRDK 110015Z AUTO 00000KT 10SM CLR 01/M06 A3012 RMK AO2
KRDK 102355Z AUTO 00000KT 10SM CLR 01/M05 A3012 RMK AO2
KRDK 102335Z AUTO 00000KT 10SM CLR 02/M05 A3011 RMK AO2
KRDK 102315Z AUTO 00000KT 10SM CLR 03/M05 A3011 RMK AO2
KRDK 102255Z AUTO 00000KT 10SM CLR 07/M04 A3011 RMK AO2
KRDK 102235Z AUTO 30003KT 10SM CLR 09/M03 A3011 RMK AO2
KRDK 102215Z AUTO 30004G10KT 10SM CLR 10/M03 A3011 RMK AO2
KRDK 102155Z AUTO 31008G14KT 10SM CLR 11/M03 A3011 RMK AO2
KRDK 102135Z AUTO 31010G17KT 10SM CLR 11/M03 A3011 RMK AO2
KRDK 102115Z AUTO 32012KT 10SM CLR 11/M03 A3010 RMK AO2
KRDK 102055Z AUTO 29010G17KT 10SM CLR 11/M03 A3009 RMK AO2
KRDK 102035Z AUTO 31011G17KT 10SM CLR 11/M03 A3009 RMK AO2
KRDK 102015Z AUTO 31011G17KT 10SM CLR 11/M03 A3009 RMK AO2
KRDK 101955Z AUTO 29010G17KT 10SM CLR 11/M03 A3009 RMK AO2
KRDK 101935Z AUTO 32011KT 10SM CLR 11/M03 A3008 RMK AO2
KRDK 101915Z AUTO 32012KT 10SM CLR 10/M03 A3008 RMK AO2
KRDK 101855Z AUTO 30010G16KT 10SM CLR 10/M03 A3008 RMK AO2
KRDK 101835Z AUTO 32013G19KT 10SM CLR 10/M03 A3009 RMK AO2
KRDK 101815Z AUTO 31012G17KT 10SM CLR 09/M03 A3009 RMK AO2
KRDK 101755Z AUTO 30011G16KT 10SM CLR 09/M03 A3009 RMK AO2
KRDK 101735Z AUTO 32008G15KT 10SM CLR 08/M02 A3008 RMK AO2
KRDK 101715Z AUTO 32010G18KT 280V340 10SM CLR 08/M02 A3009 RMK AO2
KRDK 101655Z AUTO 31012G19KT 10SM CLR 07/M02 A3009 RMK AO2
KRDK 101635Z AUTO 32011G17KT 10SM CLR 07/M02 A3009 RMK AO2
KRDK 101615Z AUTO 31012KT 10SM CLR 06/M02 A3009 RMK AO2
KRDK 101555Z AUTO 31012KT 10SM CLR 05/M02 A3008 RMK AO2
KRDK 101535Z AUTO 31009KT 10SM CLR 04/M02 A3007 RMK AO2
KRDK 101515Z AUTO 31011KT 10SM CLR 04/M02 A3008 RMK AO2
KRDK 101455Z AUTO 31008KT 10SM CLR 03/M03 A3007 RMK AO2
KRDK 101435Z AUTO 29007KT 10SM CLR 02/M03 A3007 RMK AO2
KRDK 101415Z AUTO 29009KT 10SM CLR 01/M04 A3006 RMK AO2
KRDK 101355Z AUTO 30008KT 10SM CLR 01/M04 A3005 RMK AO2
KRDK 101335Z AUTO 30008KT 10SM CLR 00/M04 A3005 RMK AO2
KRDK 101315Z AUTO 30008KT 10SM CLR 00/M04 A3004 RMK AO2
KRDK 101255Z AUTO 31007KT 10SM CLR 00/M05 A3003 RMK AO2
KRDK 101235Z AUTO 29008KT 10SM CLR M01/M05 A3002 RMK AO2
KRDK 101215Z AUTO 28010KT 10SM CLR M01/M05 A3001 RMK AO2
KRDK 101155Z AUTO 29006KT 10SM FEW002 FEW260 M02/M05 A3001 RMK AO2
KRDK 101135Z AUTO 27005KT 10SM CLR M02/M05 A3001 RMK AO2
KRDK 101115Z AUTO 27006KT 10SM FEW002 M02/M06 A3000 RMK AO2
KRDK 101055Z AUTO 29007KT 10SM BKN002 M02/M06 A3000 RMK AO2